Keenesburg, Colorado
Current Conditions -  °F | °C
As of 7:53 PM on Sunday 21 Dec 2014 (Local Time) from KDEN Reporting Station
Overcast Overcast  
Wind Chill: 40°   Ceiling: 9500
Heat Index: 44°   Visibility: 10mi
Dew Point: 27°   Wind: 7mph
Humidity: 51%   Direction: 340°NNW
Pressure: 29.58"   Gusts: NA
Location:  40.11°N, 104.52°W
Report Text: KDEN 220253Z 34006KT 10SM SCT070 BKN095 OVC200 07/M03 A2958 RMK AO2 SLP004 T00671028 53010
Loading
Personal Weather Stations






























Interactive Weather Map New forecast layout! Learn more

10-Day Weather Forecast

Advertisements
Track Severe Weather on mobile